Latest Weather Observations for Grafton Airport

IDN60801

Issued at 6:32 pm EST Wednesday 5 August 2015 (issued every 30 minutes, with the page automatically refreshed every 10 minutes)

About weather observations | Map of weather stations | Latest weather observations for NSW | Other Formats
Station Details ID: 058161 Name: GRAFTON AIRPORT AWS Lat: -29.76 Lon: 153.03 Height: 25.09 m
Data from the previous 72 hours. | See also: Recent months at Grafton Airport
Date/Time
EST
Temp
°C
App
Temp
°C
Dew
Point
Rel
Hum
%
Delta-T
°C
Wind Press
QNH
hPa
Press
MSL
hPa
Rain
since 9 am
mm
Dir
 
Spd
km/h
Gust
km/h
Spd
kts
Gust
kts
05/06:30pm 9.2 6.7 4.6 73 2.0 SSW 7 11 4 6 1013.7 1013.7 0.0
05/06:00pm 11.1 9.8 4.3 63 3.1 CALM 0 4 0 2 1013.2 1013.2 0.0
05/05:30pm 12.7 10.2 4.7 58 3.7 ESE 7 11 4 6 1012.7 1012.7 0.0
05/05:00pm 14.3 11.0 4.3 51 4.6 ESE 11 17 6 9 1012.3 1012.3 0.0
05/04:30pm 17.0 13.3 0.2 32 7.3 E 9 11 5 6 1012.1 1012.1 0.0
05/04:00pm 17.6 14.1 -1.1 28 7.9 E 7 11 4 6 1012.0 1012.0 0.0
05/03:30pm 17.9 14.5 -0.4 29 7.9 E 7 13 4 7 1011.8 1011.8 0.0
05/03:00pm 18.2 14.4 -0.6 28 8.1 ENE 9 13 5 7 1011.8 1011.8 0.0
05/02:30pm 18.3 14.5 -0.5 28 8.1 N 9 13 5 7 1011.8 1011.8 0.0
05/02:00pm 17.8 14.3 -1.4 27 8.1 NNE 7 13 4 7 1012.2 1012.2 0.0
05/01:30pm 17.2 14.0 -0.5 30 7.6 WSW 6 11 3 6 1012.5 1012.5 0.0
05/01:00pm 16.9 14.0 -0.8 30 7.5 SW 4 13 2 7 1012.9 1012.9 0.0
05/12:30pm 17.0 14.0 0.6 33 7.1 E 6 15 3 8 1013.3 1013.3 0.0
05/12:00pm 15.5 11.9 0.5 36 6.4 WSW 9 17 5 9 1014.0 1014.0 0.0
05/11:30am 15.3 12.5 1.8 40 5.9 SW 6 11 3 6 1014.6 1014.6 0.0
05/11:00am 14.2 11.1 1.2 41 5.6 SW 7 15 4 8 1015.1 1015.1 0.0
05/10:30am 13.8 10.3 1.1 42 5.4 SSW 9 17 5 9 1015.4 1015.4 0.0
05/10:00am 13.0 9.2 1.7 46 4.9 SW 11 19 6 10 1015.9 1015.9 0.0
05/09:30am 11.3 7.3 0.7 48 4.4 SW 11 17 6 9 1016.2 1016.2 0.0
05/09:00am 10.0 6.4 0.6 52 3.8 WSW 9 17 5 9 1016.4 1016.4 0.0
05/08:30am 8.9 5.6 -0.1 53 3.6 WSW 7 13 4 7 1016.4 1016.4 0.0
05/08:00am 7.9 4.8 0.4 59 3.0 WSW 6 11 3 6 1016.5 1016.5 0.0
05/07:30am 6.9 3.8 0.1 62 2.7 WSW 6 9 3 5 1016.4 1016.4 0.0
05/07:00am 6.3 2.9 -0.4 62 2.6 SW 7 13 4 7 1016.3 1016.3 0.0
05/06:30am 6.0 2.2 -0.5 63 2.5 SW 9 15 5 8 1016.0 1016.0 0.0
05/06:00am 6.3 2.6 -0.2 63 2.5 SW 9 11 5 6 1015.8 1015.8 0.0
05/05:30am 6.5 3.2 0.2 64 2.5 WSW 7 11 4 6 1015.8 1015.8 0.0
05/05:00am 6.6 2.3 1.3 69 2.1 WSW 13 17 7 9 1015.5 1015.5 0.0
05/04:30am 3.7 0.9 1.9 88 0.7 SW 6 11 3 6 1015.4 1015.4 0.0
05/04:00am 3.4 0.7 2.8 96 0.2 S 6 9 3 5 1015.3 1015.3 0.0
05/03:30am 3.2 1.6 2.6 96 0.2 CALM 0 0 0 0 1015.6 1015.6 0.0
05/03:00am 3.7 2.3 3.3 97 0.2 CALM 0 0 0 0 1015.7 1015.7 0.0
05/02:53am 3.7 2.2 3.1 96 0.2 CALM 0 6 0 3 1015.8 1015.8 0.0
05/02:30am 2.8 1.0 1.3 90 0.6 CALM 0 0 0 0 1015.8 1015.8 0.0
05/02:26am 3.0 1.2 1.5 90 0.6 CALM 0 0 0 0 1015.8 1015.8 0.0
05/02:00am 4.8 3.5 4.2 96 0.3 CALM 0 0 0 0 1016.1 1016.1 0.0
05/01:30am 5.2 2.7 4.6 96 0.3 S 7 9 4 5 1016.4 1016.4 0.0
05/01:00am 6.0 3.8 5.4 96 0.3 SSW 6 7 3 4 1016.7 1016.7 0.0
05/12:30am 6.2 4.0 5.3 94 0.4 S 6 9 3 5 1016.8 1016.8 0.0
05/12:00am 6.3 4.0 5.6 95 0.3 SSW 7 11 4 6 1017.0 1017.0 0.0
 
Date/Time
EST
Temp
°C
App
Temp
°C
Dew
Point
Rel
Hum
%
Delta-T
°C
Wind Press
QNH
hPa
Press
MSL
hPa
Rain
since 9 am
mm
Dir
 
Spd
km/h
Gust
km/h
Spd
kts
Gust
kts
04/11:35pm 6.7 5.9 6.3 97 0.2 CALM 0 0 0 0 1017.1 1017.1 0.0
04/11:30pm 5.9 4.8 5.0 94 0.4 CALM 0 0 0 0 1017.1 1017.1 0.0
04/11:15pm 5.5 4.3 4.5 93 0.4 CALM 0 0 0 0 1017.2 1017.2 0.0
04/11:00pm 6.5 4.3 5.1 91 0.6 SSW 6 7 3 4 1017.3 1017.3 0.0
04/10:30pm 6.6 5.5 5.1 90 0.7 CALM 0 0 0 0 1017.4 1017.4 0.0
04/10:00pm 8.4 6.4 7.0 91 0.7 SSW 7 11 4 6 1017.4 1017.4 0.0
04/09:30pm 7.7 5.8 6.5 92 0.5 SSW 6 9 3 5 1017.6 1017.6 0.0
04/09:00pm 7.8 5.7 6.6 92 0.6 SSW 7 9 4 5 1017.6 1017.6 0.0
04/08:30pm 8.2 5.8 7.0 92 0.6 S 9 11 5 6 1017.5 1017.5 0.0
04/08:00pm 8.2 6.2 6.3 88 0.9 SSW 6 9 3 5 1017.5 1017.5 0.0
04/07:30pm 9.3 8.2 6.9 85 1.1 SSW 2 7 1 4 1017.4 1017.4 0.0
04/07:00pm 10.0 9.4 7.3 83 1.3 CALM 0 0 0 0 1017.3 1017.3 0.0
04/06:30pm 11.4 10.7 7.1 75 2.1 CALM 0 0 0 0 1017.4 1017.4 0.0
04/06:00pm 12.1 11.4 6.8 70 2.5 CALM 0 0 0 0 1017.3 1017.3 0.0
04/05:30pm 13.7 11.8 6.8 63 3.3 E 6 9 3 5 1017.0 1017.0 0.0
04/05:00pm 15.0 12.6 6.8 58 4.0 E 9 13 5 7 1017.0 1017.0 0.0
04/04:30pm 16.4 13.1 6.5 52 4.9 E 13 19 7 10 1017.0 1017.0 0.0
04/04:00pm 17.1 13.8 6.3 49 5.3 E 13 19 7 10 1017.0 1017.0 0.0
04/03:30pm 18.2 14.7 5.4 43 6.2 E 13 19 7 10 1017.1 1017.1 0.0
04/03:00pm 19.1 16.4 5.6 41 6.6 NNE 9 22 5 12 1017.2 1017.2 0.0
04/02:30pm 19.2 17.1 5.6 41 6.7 NW 6 11 3 6 1017.6 1017.6 0.0
04/02:00pm 18.5 15.0 3.6 37 7.0 N 11 15 6 8 1018.0 1018.0 0.0
04/01:30pm 19.0 16.6 4.4 38 7.0 SSW 6 9 3 5 1018.3 1018.3 0.0
04/01:00pm 17.4 14.8 3.3 39 6.5 SW 6 13 3 7 1018.9 1018.9 0.0
04/12:30pm 18.1 15.7 4.3 40 6.6 NW 6 11 3 6 1019.2 1019.2 0.0
04/12:00pm 17.2 13.9 4.5 43 6.0 SSW 11 15 6 8 1019.7 1019.7 0.0
04/11:30am 17.4 15.1 4.7 43 6.0 SSE 6 9 3 5 1020.2 1020.2 0.0
04/11:00am 15.7 12.3 3.8 45 5.5 SSE 11 15 6 8 1020.7 1020.7 0.0
04/10:30am 15.1 11.7 4.2 48 5.0 SW 11 17 6 9 1021.2 1021.2 0.0
04/10:00am 14.0 10.9 3.5 49 4.7 SSW 9 15 5 8 1021.4 1021.4 0.0
04/09:30am 12.5 9.4 3.5 54 4.0 SW 9 13 5 7 1021.6 1021.6 0.0
04/09:00am 11.4 7.9 3.4 58 3.5 SW 11 17 6 9 1021.5 1021.5 0.0
04/08:30am 10.6 7.6 3.9 63 3.0 SW 9 13 5 7 1021.4 1021.4 0.0
04/08:00am 9.1 5.9 3.3 67 2.5 SSW 9 13 5 7 1021.5 1021.5 0.0
04/07:30am 8.2 5.2 2.2 66 2.5 SSW 7 11 4 6 1021.4 1021.4 0.0
04/07:00am 7.5 4.3 3.2 74 1.8 SSW 9 11 5 6 1021.0 1021.0 0.0
04/06:30am 7.4 4.2 3.1 74 1.8 SW 9 11 5 6 1020.7 1020.7 0.0
04/06:00am 7.0 4.4 4.0 81 1.3 SW 7 9 4 5 1020.3 1020.3 0.0
04/05:30am 7.8 4.4 4.0 77 1.6 S 11 11 6 6 1019.9 1019.9 0.0
04/05:00am 7.7 4.6 3.7 76 1.7 SSW 9 11 5 6 1019.8 1019.8 0.0
04/04:30am 7.5 4.5 3.9 78 1.5 SSW 9 13 5 7 1019.4 1019.4 0.0
04/04:00am 7.0 3.7 2.7 74 1.8 SSW 9 11 5 6 1019.2 1019.2 0.0
04/03:30am 6.8 3.5 2.7 75 1.7 SSW 9 11 5 6 1019.2 1019.2 0.0
04/03:00am 5.7 2.5 3.0 83 1.1 SSW 9 13 5 7 1019.0 1019.0 0.0
04/02:30am 5.5 2.7 3.3 86 0.9 SW 7 11 4 6 1018.8 1018.8 0.0
04/02:00am 7.2 4.0 3.3 76 1.6 S 9 11 5 6 1018.9 1018.9 0.0
04/01:30am 6.8 3.9 2.7 75 1.7 SSW 7 9 4 5 1018.5 1018.5 0.0
04/01:00am 6.9 3.7 3.3 78 1.5 SSW 9 11 5 6 1018.5 1018.5 0.0
04/12:30am 8.8 5.7 3.8 71 2.2 SSW 9 11 5 6 1018.7 1018.7 0.0
04/12:00am 8.5 5.8 5.8 83 1.2 S 9 11 5 6 1018.4 1018.4 0.0
 
Date/Time
EST
Temp
°C
App
Temp
°C
Dew
Point
Rel
Hum
%
Delta-T
°C
Wind Press
QNH
hPa
Press
MSL
hPa
Rain
since 9 am
mm
Dir
 
Spd
km/h
Gust
km/h
Spd
kts
Gust
kts
03/11:30pm 8.6 6.5 6.6 87 0.9 SW 7 11 4 6 1018.1 1018.1 0.0
03/11:00pm 10.4 7.9 6.5 77 1.8 S 9 13 5 7 1017.8 1017.8 0.0
03/10:30pm 10.4 9.0 9.5 94 0.5 SW 7 9 4 5 1017.6 1017.6 0.0
03/10:00pm 11.2 9.4 9.6 90 0.8 SSE 9 11 5 6 1017.6 1017.6 0.0
03/09:30pm 12.6 10.6 10.0 84 1.3 SSW 11 15 6 8 1017.4 1017.4 0.0
03/09:00pm 13.1 12.0 11.8 92 0.7 S 9 11 5 6 1017.1 1017.1 0.0
03/08:30pm 14.0 14.6 13.1 94 0.5 SSW 2 9 1 5 1016.9 1016.9 0.0
03/08:00pm 15.2 16.4 13.9 92 0.7 CALM 0 2 0 1 1016.5 1016.5 0.0
03/07:30pm 15.9 17.0 13.6 86 1.3 CALM 0 0 0 0 1016.1 1016.1 0.0
03/07:00pm 16.8 17.1 13.5 81 1.9 SW 4 9 2 5 1015.7 1015.7 0.0
03/06:30pm 17.9 17.1 14.0 78 2.2 S 11 15 6 8 1015.3 1015.3 0.0
03/06:00pm 18.8 18.8 13.6 72 3.0 E 6 11 3 6 1014.9 1014.9 0.0
03/05:30pm 19.6 17.6 12.8 65 3.8 S 15 19 8 10 1013.9 1013.9 0.0
03/05:00pm 21.4 18.8 12.0 55 5.3 SE 17 24 9 13 1013.5 1013.5 0.0
03/04:30pm 24.5 21.8 8.9 37 8.4 SSW 13 28 7 15 1012.8 1012.8 0.0
03/04:00pm 27.6 25.2 5.2 24 11.5 NW 7 17 4 9 1012.0 1012.0 0.0
03/03:30pm 27.7 25.1 5.9 25 11.4 NW 9 15 5 8 1011.9 1011.9 0.0
03/03:00pm 27.6 24.9 9.0 31 10.2 NNW 13 20 7 11 1011.7 1011.7 0.0
03/02:30pm 27.4 24.7 10.2 34 9.6 NNW 15 24 8 13 1011.7 1011.7 0.0
03/02:00pm 26.6 23.9 9.0 33 9.6 NNW 13 20 7 11 1012.1 1012.1 0.0
03/01:30pm 26.2 23.8 10.0 36 9.0 NNW 13 24 7 13 1012.5 1012.5 0.0
03/01:00pm 25.3 23.9 12.2 44 7.5 N 11 17 6 9 1012.9 1012.9 0.0
03/12:30pm 24.0 22.3 11.3 45 7.1 NNW 11 17 6 9 1013.4 1013.4 0.0
03/12:00pm 23.7 21.9 10.7 44 7.2 NNW 11 17 6 9 1013.9 1013.9 0.0
03/11:30am 22.5 21.2 11.3 49 6.2 N 9 15 5 8 1014.4 1014.4 0.0
03/11:00am 20.7 19.2 10.5 52 5.5 NNW 9 15 5 8 1015.2 1015.2 0.0
03/10:30am 18.1 17.4 11.4 65 3.7 W 6 9 3 5 1015.7 1015.7 0.0
03/10:00am 16.5 15.5 10.4 67 3.2 N 6 9 3 5 1015.9 1015.9 0.0
03/09:30am 14.9 14.3 10.3 74 2.4 N 4 6 2 3 1016.4 1016.4 0.0
03/09:00am 13.5 13.9 11.2 86 1.2 CALM 0 0 0 0 1016.3 1016.3 0.0
03/08:30am 11.4 11.6 10.6 95 0.4 CALM 0 0 0 0 1016.4 1016.4 0.0
03/08:00am 9.5 9.3 9.0 97 0.2 CALM 0 0 0 0 1016.4 1016.4 0.0
03/07:30am 8.2 7.6 7.6 96 0.3 CALM 0 0 0 0 1016.1 1016.1 0.0
03/07:00am 7.6 7.0 7.2 97 0.2 CALM 0 0 0 0 1016.0 1016.0 0.0
03/06:30am 7.4 5.9 7.0 97 0.2 S 4 9 2 5 1016.0 1016.0 0.0
03/06:00am 7.4 6.7 6.8 96 0.3 CALM 0 0 0 0 1015.6 1015.6 0.0
03/05:30am 7.7 7.0 7.0 95 0.3 CALM 0 0 0 0 1015.5 1015.5 0.0
03/05:00am 8.3 7.8 7.9 97 0.2 CALM 0 0 0 0 1015.4 1015.4 0.0
03/04:30am 8.0 7.4 7.4 96 0.3 CALM 0 0 0 0 1015.3 1015.3 0.0
03/04:00am 8.6 8.1 8.0 96 0.3 CALM 0 0 0 0 1015.3 1015.3 0.0
03/03:30am 9.0 8.6 8.4 96 0.3 CALM 0 0 0 0 1015.4 1015.4 0.0
03/03:00am 9.0 7.4 7.9 93 0.5 S 6 7 3 4 1015.7 1015.7 0.0
03/02:30am 9.7 9.4 8.8 94 0.4 CALM 0 0 0 0 1015.8 1015.8 0.0
03/02:00am 9.9 9.4 9.3 96 0.3 S 2 9 1 5 1016.2 1016.2 0.0
03/01:30am 9.7 9.4 8.6 93 0.5 CALM 0 0 0 0 1016.4 1016.4 0.0
03/01:00am 10.6 10.6 9.7 94 0.5 CALM 0 0 0 0 1016.4 1016.4 0.0
03/12:30am 10.6 10.6 9.7 94 0.5 CALM 0 0 0 0 1016.8 1016.8 0.0
03/12:00am 10.6 10.4 9.2 91 0.7 CALM 0 0 0 0 1017.1 1017.1 0.0
 
Date/Time
EST
Temp
°C
App
Temp
°C
Dew
Point
Rel
Hum
%
Delta-T
°C
Wind Press
QNH
hPa
Press
MSL
hPa
Rain
since 9 am
mm
Dir
 
Spd
km/h
Gust
km/h
Spd
kts
Gust
kts
02/11:30pm 12.3 12.5 10.4 88 1.0 CALM 0 0 0 0 1017.2 1017.2 0.0
02/11:00pm 12.0 12.1 10.1 88 1.0 CALM 0 0 0 0 1017.5 1017.5 0.0
02/10:30pm 12.5 12.4 9.3 81 1.6 CALM 0 0 0 0 1017.6 1017.6 0.0
02/10:00pm 13.5 13.6 10.3 81 1.7 CALM 0 0 0 0 1017.7 1017.7 0.0
02/09:30pm 14.3 14.4 10.3 77 2.1 CALM 0 0 0 0 1017.6 1017.6 0.0
02/09:00pm 14.4 14.6 10.4 77 2.1 CALM 0 0 0 0 1017.5 1017.5 0.0
02/08:30pm 15.3 14.2 9.9 70 2.8 E 6 6 3 3 1017.3 1017.3 0.0
02/08:00pm 16.8 15.3 10.4 66 3.4 ENE 9 9 5 5 1017.0 1017.0 0.0
02/07:30pm 17.7 16.2 10.6 63 3.8 ENE 9 11 5 6 1016.8 1016.8 0.0
02/07:00pm 17.0 15.4 10.1 64 3.6 NE 9 13 5 7 1016.5 1016.5 0.0

Other Formats:

Comma delimited format used in spreadsheet applications
http://www.bom.gov.au/fwo/IDN60801/IDN60801.95570.axf

JavaScript Object Notation format (JSON) in row-major order
http://www.bom.gov.au/fwo/IDN60801/IDN60801.95570.json